Terminal Aerodrome Forecast
Issued by NWS

Current Version | Previous Version | Graphics & Text | Print | Product List | Glossary On
Versions: 1 2 3 4 5 6 7 8 9 10 11 12 13 14 15 16
000
FTUS41 KILN 120800 AAA
TAFLUK
TAF AMD
KLUK 120856Z 1209/1306 00000KT 4SM BR SCT150
      TEMPO 1209/1212 2SM BR
     FM121500 22008KT P6SM SCT050 BKN120
     FM122100 24008KT P6SM VCSH BKN060
     FM130100 19006KT P6SM BKN100=

USA.gov is the U.S. government's official web portal to all federal, state and local government web resources and services.